Will Rogers World Airport
KOKC : now visible

Airfield :











YOU CAN JOIN US ON...

 
LOGIN :

Register | Disclaimer

   EN    FR    IT 

 









Legend :    VFR   Marginal VFR   IFR   Intensive IFR   Very Intensive IFR
Visi :
Ceiling :
>= 8 km
>= 3000ft
5 to 8 km
1000 to 3000 ft
1500m to 5 km
500 to 1000 ft
800 to 1500m
200 to 500 ft
< 800m
< 200 ft
Symbols :   Thunderstorms  Fog  Heavy snow  Heavy precipitations  Wind > 20 kt






- Airport Elevation : 1295 ft
- IATA code : OKC


KOKC - Will Rogers World

CURRENT METAR :
  • 241203Z 21006KT 1 1/2SM R35R/5000V6000FT -DZ BR OVC002 10/10 A2992 RMK AO2 P0000 T01000100

EXPIRED METARs :
  • 241152Z 21009KT 1SM R35R/5500VP6000FT -DZ BR OVC002 10/10 A2991 RMK AO2 TWR VIS 1 1/2 DZB48 SLP127 P0000 60000 T01000100 10100 20089 53004
  • 241052Z 19012KT 1/2SM R35R/3000V4000FT FG VV002 10/10 A2990 RMK AO2 TWR VIS 1 1/2 SLP124 T01000100
  • 240952Z 19013KT 1/2SM R35R/3000V3500FT FG VV002 10/09 A2989 RMK AO2 TWR VIS 1 1/2 DZE48 SLP122 P0000 T01000094

TAF KOKC
Valid from the 24 at 12:00 until the 25 at 12:00 UTC


241120Z 2412/2512 19012KT 1/2SM FG VV002
TEMPO 2414/2416 1 1/2SM BR OVC003
FM241600 35010KT 4SM BR OVC008
FM242300 03006KT 5SM SHRA BR OVC007
FM250200 06007KT 3SM SHRADZ BR OVC003
PROB30 2502/2507 1SM TSRA OVC003CB
FM251000 06009KT 6SM BR OVC005
KZFW FIR / North America



MET'MAP, your aeronautical weather chart ! - Copyright ORBIFLY December 2007 - Disclaimer

ORBIFLY MET'MAP TEAM :

Programming & Development : Alexandra Zaïnal
Concept & original design : Baudouin d'Aumeries
Assistance for programming : Marc-Olivier Méhu
Technical & hardware support : Manuel Goepfert

Contact : metmap@orbifly.com




SOURCES & CREDITS :

   NOAA       Earth
Advisory